Het weer levert geen direct gevaar op.    Er zijn geen waarschuwingen afgegeven.

Regen radar Meer informatie rain snow radar


Bezoek onze andere website:

Template documentation
and downloads

And another site

EUWEATHER.EU


U vindt ons ook hier:

Het Weer Aktueel

UK Metoffice

European Weather Network

WeatherCloud

Weather Underground

Benelux Weer Netwerk

AWEKAS

WeatherlinkIP

HAMweather, WeatherForYou, PWS Weather

Wetter.com



METAR rapporten vliegvelden

   
EBAW - Antwerp
Gewijzigd: 02-08-2021 06:50
Buien, Regen, Grotendeels bewolkt  
Buien, Regen, Grotendeels bewolkt  
   Wind: varieert 1.9 km/h
Wind: varieert 1.9 km/h
Temperatuur: 14°C
Dauwpunt: 11°C
Vochtigheid: 82%
Barometer: 1014 hPa
Bewolking: Grotendeels bewolkt
Zicht: meer dan 10 km
Bewolking: Licht bewolkt 700 ft,
Grotendeels bewolkt 2900 ft
EBAW 020450Z VRB01KT 9999 -SHRA FEW007 BKN029 14/11 Q1014 NOSIG
EBLG - Li├Ęge
Gewijzigd: 02-08-2021 06:50
Regenbuien, Regen, Nevel, Grotendeels bewolkt  
Regenbuien, Regen, Nevel, Grotendeels bewolkt  
   Wind: WZW 7.4 km/h
Wind: WZW 7.4 km/h
Temperatuur: 14°C
Dauwpunt: 13°C
Vochtigheid: 94%
Barometer: 1014 hPa
Bewolking: Grotendeels bewolkt
Zicht: 4 km
Bewolking: Grotendeels bewolkt 500 ft,
Grotendeels bewolkt 3000 ft
EBLG 020450Z 25004KT 3500 SHRA BR BKN005 BKN030 14/13 Q1014 TEMPO 6000 -SHRA
EBCV - Mons/Bergen
Gewijzigd: 02-08-2021 07:03
Zware buien, Bewolking  
Zware buien, Bewolking  
   Wind: ZZW 5.6 km/h
Wind: ZZW 5.6 km/h
Temperatuur: 14°C
Dauwpunt: 13°C
Vochtigheid: 94%
Barometer: 1013 hPa
Bewolking: Bewolking
Zicht: 4 km
Bewolking: Grotendeels bewolkt 800 ft,
Bewolking 4200 ft
EBCV 020503Z AUTO 21003KT 3600 +RA BKN008/// OVC042/// 14/13 Q1013 YLO
EHBK - Maastricht
Gewijzigd: 02-08-2021 06:55
Bewolking  
Bewolking  
   Wind: varieert 3.7 km/h
Wind: varieert 3.7 km/h
Temperatuur: 14°C
Dauwpunt: 13°C
Vochtigheid: 94%
Barometer: 1013 hPa
Bewolking: Bewolking
Zicht: meer dan 10 km
Bewolking: Bewolking 1800 ft
EHBK 020455Z AUTO VRB02KT 9999 OVC018/// 14/13 Q1013 NOSIG
ELLX - Luxemburg
Gewijzigd: 02-08-2021 06:50
Helder  
Helder  
   Wind: ZW 9.3 km/h
Wind: ZW 9.3 km/h
Temperatuur: 12°C
Dauwpunt: 12°C
Vochtigheid: 100%
Barometer: 1014 hPa
Zicht: meer dan 10 km
Bewolking: Helder
ELLX 020450Z 22005KT CAVOK 12/12 Q1014 NOSIG
EBOS - Oostende
Gewijzigd: 02-08-2021 06:50
Licht bewolkt  
Licht bewolkt  
   Wind: varieert 1.9 km/h
Wind: varieert 1.9 km/h
Temperatuur: 13°C
Dauwpunt: 12°C
Vochtigheid: 94%
Barometer: 1014 hPa
Bewolking: Licht bewolkt
Zicht: meer dan 10 km
Bewolking: Licht bewolkt 2300 ft
EBOS 020450Z VRB01KT 9999 FEW023 13/12 Q1014 NOSIG

Script ontwikkeld door  Saratoga-weather.org Aangepast voor de template door  Weerstation Leuven

Apparatuur in gebruik:

Weerstation
Davis VP2

Weerprogramma
Meteobridge

Weercomputer
Asus WL -330N3G

Webleverancier
Onecom

Davis VP2

Meteobridge

Asus WL -330N3G

Onecom